sensor_id;sensor_type;location;lat;lon;timestamp;P1;P2;P0
70520;PMS5003;58442;52.716;23.560;2023-04-03T00:00:44;0;0;0
70520;PMS5003;58442;52.716;23.560;2023-04-03T00:02:50;0;0;0
70520;PMS5003;58442;52.716;23.560;2023-04-03T00:04:56;0;0;0
70520;PMS5003;58442;52.716;23.560;2023-04-03T00:06:57;0;0;0
70520;PMS5003;58442;52.716;23.560;2023-04-03T00:08:59;0;0;0
70520;PMS5003;58442;52.716;23.560;2023-04-03T00:11:01;0;0;0
70520;PMS5003;58442;52.716;23.560;2023-04-03T00:13:11;0;0;0
70520;PMS5003;58442;52.716;23.560;2023-04-03T00:15:13;0;0;0
70520;PMS5003;58442;52.716;23.560;2023-04-03T00:17:14;0;0;0
70520;PMS5003;58442;52.716;23.560;2023-04-03T00:19:15;0;0;0
70520;PMS5003;58442;52.716;23.560;2023-04-03T00:21:26;1;1;0
70520;PMS5003;58442;52.716;23.560;2023-04-03T00:23:28;0;0;0
70520;PMS5003;58442;52.716;23.560;2023-04-03T00:25:29;0;0;0
70520;PMS5003;58442;52.716;23.560;2023-04-03T00:27:30;0;0;0
70520;PMS5003;58442;52.716;23.560;2023-04-03T00:29:41;0;0;0
70520;PMS5003;58442;52.716;23.560;2023-04-03T00:31:42;0;0;0
70520;PMS5003;58442;52.716;23.560;2023-04-03T00:33:44;0;0;0
70520;PMS5003;58442;52.716;23.560;2023-04-03T00:35:45;0;0;0
70520;PMS5003;58442;52.716;23.560;2023-04-03T00:37:56;0;0;0
70520;PMS5003;58442;52.716;23.560;2023-04-03T00:39:58;1;1;0
70520;PMS5003;58442;52.716;23.560;2023-04-03T00:42:00;1;1;1
70520;PMS5003;58442;52.716;23.560;2023-04-03T00:44:18;0;0;0
70520;PMS5003;58442;52.716;23.560;2023-04-03T00:46:14;1;1;0
70520;PMS5003;58442;52.716;23.560;2023-04-03T00:48:26;0;0;0
70520;PMS5003;58442;52.716;23.560;2023-04-03T00:50:29;0;0;0
70520;PMS5003;58442;52.716;23.560;2023-04-03T00:52:31;1;1;0
70520;PMS5003;58442;52.716;23.560;2023-04-03T00:54:33;1;1;0
70520;PMS5003;58442;52.716;23.560;2023-04-03T00:56:36;1;1;1
70520;PMS5003;58442;52.716;23.560;2023-04-03T00:58:44;0;0;0
70520;PMS5003;58442;52.716;23.560;2023-04-03T01:00:50;0;0;0
70520;PMS5003;58442;52.716;23.560;2023-04-03T01:02:57;0;0;0
70520;PMS5003;58442;52.716;23.560;2023-04-03T01:05:09;0;0;0
70520;PMS5003;58442;52.716;23.560;2023-04-03T01:07:15;0;0;0
70520;PMS5003;58442;52.716;23.560;2023-04-03T01:09:19;1;1;1
70520;PMS5003;58442;52.716;23.560;2023-04-03T01:11:21;0;0;0
70520;PMS5003;58442;52.716;23.560;2023-04-03T01:13:25;0;0;0
70520;PMS5003;58442;52.716;23.560;2023-04-03T01:15:29;0;0;0
70520;PMS5003;58442;52.716;23.560;2023-04-03T01:17:37;2;2;1
70520;PMS5003;58442;52.716;23.560;2023-04-03T01:19:43;0;0;0
70520;PMS5003;58442;52.716;23.560;2023-04-03T01:22:01;0;0;0
70520;PMS5003;58442;52.716;23.560;2023-04-03T01:24:14;0;0;0
70520;PMS5003;58442;52.716;23.560;2023-04-03T01:26:23;1;0;0
70520;PMS5003;58442;52.716;23.560;2023-04-03T01:28:27;0;0;0
70520;PMS5003;58442;52.716;23.560;2023-04-03T01:30:32;0;0;0
70520;PMS5003;58442;52.716;23.560;2023-04-03T01:32:37;0;0;0
70520;PMS5003;58442;52.716;23.560;2023-04-03T01:34:38;0;0;0
70520;PMS5003;58442;52.716;23.560;2023-04-03T01:36:40;2;2;2
70520;PMS5003;58442;52.716;23.560;2023-04-03T01:38:41;0;0;0
70520;PMS5003;58442;52.716;23.560;2023-04-03T01:40:43;0;0;0
70520;PMS5003;58442;52.716;23.560;2023-04-03T01:42:52;0;0;0
70520;PMS5003;58442;52.716;23.560;2023-04-03T01:44:54;0;0;0
70520;PMS5003;58442;52.716;23.560;2023-04-03T01:46:56;0;0;0
70520;PMS5003;58442;52.716;23.560;2023-04-03T01:48:57;0;0;0
70520;PMS5003;58442;52.716;23.560;2023-04-03T01:51:08;0;0;0
70520;PMS5003;58442;52.716;23.560;2023-04-03T01:53:09;0;0;0
70520;PMS5003;58442;52.716;23.560;2023-04-03T01:55:11;0;0;0
70520;PMS5003;58442;52.716;23.560;2023-04-03T01:57:12;0;0;0
70520;PMS5003;58442;52.716;23.560;2023-04-03T01:59:23;0;0;0
70520;PMS5003;58442;52.716;23.560;2023-04-03T02:01:24;0;0;0
70520;PMS5003;58442;52.716;23.560;2023-04-03T02:03:27;0;0;0
70520;PMS5003;58442;52.716;23.560;2023-04-03T02:05:28;0;0;0
70520;PMS5003;58442;52.716;23.560;2023-04-03T02:07:38;0;0;0
70520;PMS5003;58442;52.716;23.560;2023-04-03T02:09:39;0;0;0
70520;PMS5003;58442;52.716;23.560;2023-04-03T02:11:41;0;0;0
70520;PMS5003;58442;52.716;23.560;2023-04-03T02:13:42;1;1;1
70520;PMS5003;58442;52.716;23.560;2023-04-03T02:15:53;0;0;0
70520;PMS5003;58442;52.716;23.560;2023-04-03T02:17:54;1;1;1
70520;PMS5003;58442;52.716;23.560;2023-04-03T02:19:55;1;1;1
70520;PMS5003;58442;52.716;23.560;2023-04-03T02:21:57;1;1;1
70520;PMS5003;58442;52.716;23.560;2023-04-03T02:24:08;0;0;0
70520;PMS5003;58442;52.716;23.560;2023-04-03T02:26:10;1;1;1
70520;PMS5003;58442;52.716;23.560;2023-04-03T02:28:13;1;1;1
70520;PMS5003;58442;52.716;23.560;2023-04-03T02:30:15;0;0;0
70520;PMS5003;58442;52.716;23.560;2023-04-03T02:32:23;3;2;1
70520;PMS5003;58442;52.716;23.560;2023-04-03T02:34:24;2;2;1
70520;PMS5003;58442;52.716;23.560;2023-04-03T02:36:26;3;3;2
70520;PMS5003;58442;52.716;23.560;2023-04-03T02:38:27;1;1;1
70520;PMS5003;58442;52.716;23.560;2023-04-03T02:40:38;1;1;1
70520;PMS5003;58442;52.716;23.560;2023-04-03T02:42:39;1;1;0
70520;PMS5003;58442;52.716;23.560;2023-04-03T02:44:40;2;2;2
70520;PMS5003;58442;52.716;23.560;2023-04-03T02:46:42;0;0;0
70520;PMS5003;58442;52.716;23.560;2023-04-03T02:48:53;0;0;0
70520;PMS5003;58442;52.716;23.560;2023-04-03T02:50:54;0;0;0
70520;PMS5003;58442;52.716;23.560;2023-04-03T02:52:56;0;0;0
70520;PMS5003;58442;52.716;23.560;2023-04-03T02:54:57;0;0;0
70520;PMS5003;58442;52.716;23.560;2023-04-03T02:57:08;2;1;1
70520;PMS5003;58442;52.716;23.560;2023-04-03T02:59:12;1;1;1
70520;PMS5003;58442;52.716;23.560;2023-04-03T03:01:13;1;1;0
70520;PMS5003;58442;52.716;23.560;2023-04-03T03:03:15;0;0;0
70520;PMS5003;58442;52.716;23.560;2023-04-03T03:05:23;1;1;1
70520;PMS5003;58442;52.716;23.560;2023-04-03T03:07:24;1;1;1
70520;PMS5003;58442;52.716;23.560;2023-04-03T03:09:26;1;1;1
70520;PMS5003;58442;52.716;23.560;2023-04-03T03:11:28;2;2;2
70520;PMS5003;58442;52.716;23.560;2023-04-03T03:13:38;2;2;2
70520;PMS5003;58442;52.716;23.560;2023-04-03T03:15:39;0;0;0
70520;PMS5003;58442;52.716;23.560;2023-04-03T03:17:41;1;1;1
70520;PMS5003;58442;52.716;23.560;2023-04-03T03:19:42;1;1;1
70520;PMS5003;58442;52.716;23.560;2023-04-03T03:21:53;1;1;1
70520;PMS5003;58442;52.716;23.560;2023-04-03T03:23:54;1;1;1
70520;PMS5003;58442;52.716;23.560;2023-04-03T03:25:59;3;3;2
70520;PMS5003;58442;52.716;23.560;2023-04-03T03:28:04;2;2;2
70520;PMS5003;58442;52.716;23.560;2023-04-03T03:30:08;3;3;1
70520;PMS5003;58442;52.716;23.560;2023-04-03T03:32:10;2;2;1
70520;PMS5003;58442;52.716;23.560;2023-04-03T03:34:12;1;1;1
70520;PMS5003;58442;52.716;23.560;2023-04-03T03:36:13;1;1;1
70520;PMS5003;58442;52.716;23.560;2023-04-03T03:38:23;2;2;1
70520;PMS5003;58442;52.716;23.560;2023-04-03T03:40:24;1;1;1
70520;PMS5003;58442;52.716;23.560;2023-04-03T03:42:26;0;0;0
70520;PMS5003;58442;52.716;23.560;2023-04-03T03:44:27;3;3;2
70520;PMS5003;58442;52.716;23.560;2023-04-03T03:46:38;4;4;3
70520;PMS5003;58442;52.716;23.560;2023-04-03T03:48:40;3;3;3
70520;PMS5003;58442;52.716;23.560;2023-04-03T03:50:41;4;4;3
70520;PMS5003;58442;52.716;23.560;2023-04-03T03:52:42;3;3;2
70520;PMS5003;58442;52.716;23.560;2023-04-03T03:54:53;2;2;2
70520;PMS5003;58442;52.716;23.560;2023-04-03T03:56:55;4;4;3
70520;PMS5003;58442;52.716;23.560;2023-04-03T03:58:56;4;4;3
70520;PMS5003;58442;52.716;23.560;2023-04-03T04:01:01;3;3;3
70520;PMS5003;58442;52.716;23.560;2023-04-03T04:03:08;5;5;4
70520;PMS5003;58442;52.716;23.560;2023-04-03T04:05:09;4;4;3
70520;PMS5003;58442;52.716;23.560;2023-04-03T04:07:11;4;4;3
70520;PMS5003;58442;52.716;23.560;2023-04-03T04:09:12;3;3;2
70520;PMS5003;58442;52.716;23.560;2023-04-03T04:11:23;3;3;2
70520;PMS5003;58442;52.716;23.560;2023-04-03T04:13:25;3;3;3
70520;PMS5003;58442;52.716;23.560;2023-04-03T04:15:26;2;2;1
70520;PMS5003;58442;52.716;23.560;2023-04-03T04:17:28;4;3;2
70520;PMS5003;58442;52.716;23.560;2023-04-03T04:19:38;5;3;3
70520;PMS5003;58442;52.716;23.560;2023-04-03T04:21:40;4;4;3
70520;PMS5003;58442;52.716;23.560;2023-04-03T04:23:42;5;4;3
70520;PMS5003;58442;52.716;23.560;2023-04-03T04:25:46;4;3;2
70520;PMS5003;58442;52.716;23.560;2023-04-03T04:27:53;4;4;3
70520;PMS5003;58442;52.716;23.560;2023-04-03T04:29:55;3;3;2
70520;PMS5003;58442;52.716;23.560;2023-04-03T04:31:56;4;3;1
70520;PMS5003;58442;52.716;23.560;2023-04-03T04:33:57;2;2;2
70520;PMS5003;58442;52.716;23.560;2023-04-03T04:36:08;4;4;4
70520;PMS5003;58442;52.716;23.560;2023-04-03T04:38:10;1;1;1
70520;PMS5003;58442;52.716;23.560;2023-04-03T04:40:11;1;1;1
70520;PMS5003;58442;52.716;23.560;2023-04-03T04:42:13;1;1;1
70520;PMS5003;58442;52.716;23.560;2023-04-03T04:44:23;2;2;1
70520;PMS5003;58442;52.716;23.560;2023-04-03T04:46:25;2;2;1
70520;PMS5003;58442;52.716;23.560;2023-04-03T04:48:27;2;2;2
70520;PMS5003;58442;52.716;23.560;2023-04-03T04:50:28;3;3;3
70520;PMS5003;58442;52.716;23.560;2023-04-03T04:52:38;2;2;2
70520;PMS5003;58442;52.716;23.560;2023-04-03T04:54:40;2;2;2
70520;PMS5003;58442;52.716;23.560;2023-04-03T04:56:42;2;2;2
70520;PMS5003;58442;52.716;23.560;2023-04-03T04:58:43;1;1;1
70520;PMS5003;58442;52.716;23.560;2023-04-03T05:03:15;3;2;1
70520;PMS5003;58442;52.716;23.560;2023-04-03T05:05:16;3;3;2
70520;PMS5003;58442;52.716;23.560;2023-04-03T05:07:18;2;2;1
70520;PMS5003;58442;52.716;23.560;2023-04-03T05:09:19;0;0;0
70520;PMS5003;58442;52.716;23.560;2023-04-03T05:11:30;2;2;1
70520;PMS5003;58442;52.716;23.560;2023-04-03T05:13:31;2;1;1
70520;PMS5003;58442;52.716;23.560;2023-04-03T05:15:33;5;4;2
70520;PMS5003;58442;52.716;23.560;2023-04-03T05:17:34;1;1;1
70520;PMS5003;58442;52.716;23.560;2023-04-03T05:19:45;4;3;2
70520;PMS5003;58442;52.716;23.560;2023-04-03T05:21:47;3;3;2
70520;PMS5003;58442;52.716;23.560;2023-04-03T05:23:49;6;6;4
70520;PMS5003;58442;52.716;23.560;2023-04-03T05:25:50;3;3;2
70520;PMS5003;58442;52.716;23.560;2023-04-03T05:28:00;0;0;0
70520;PMS5003;58442;52.716;23.560;2023-04-03T05:30:02;2;2;2
70520;PMS5003;58442;52.716;23.560;2023-04-03T05:32:04;1;1;1
70520;PMS5003;58442;52.716;23.560;2023-04-03T05:34:06;0;0;0
70520;PMS5003;58442;52.716;23.560;2023-04-03T05:36:15;2;2;2
70520;PMS5003;58442;52.716;23.560;2023-04-03T05:38:17;1;1;1
70520;PMS5003;58442;52.716;23.560;2023-04-03T05:40:18;2;2;1
70520;PMS5003;58442;52.716;23.560;2023-04-03T05:42:19;4;4;3
70520;PMS5003;58442;52.716;23.560;2023-04-03T05:44:30;0;0;0
70520;PMS5003;58442;52.716;23.560;2023-04-03T05:46:32;2;2;2
70520;PMS5003;58442;52.716;23.560;2023-04-03T05:48:33;2;2;1
70520;PMS5003;58442;52.716;23.560;2023-04-03T05:50:35;2;2;1
70520;PMS5003;58442;52.716;23.560;2023-04-03T05:52:45;0;0;0
70520;PMS5003;58442;52.716;23.560;2023-04-03T05:54:51;2;2;1
70520;PMS5003;58442;52.716;23.560;2023-04-03T05:56:52;1;1;1
70520;PMS5003;58442;52.716;23.560;2023-04-03T05:58:54;1;1;1
70520;PMS5003;58442;52.716;23.560;2023-04-03T06:01:00;2;2;2
70520;PMS5003;58442;52.716;23.560;2023-04-03T06:03:02;0;0;0
70520;PMS5003;58442;52.716;23.560;2023-04-03T06:05:04;0;0;0
70520;PMS5003;58442;52.716;23.560;2023-04-03T06:07:06;1;1;1
70520;PMS5003;58442;52.716;23.560;2023-04-03T06:09:15;1;1;1
70520;PMS5003;58442;52.716;23.560;2023-04-03T06:11:17;2;2;2
70520;PMS5003;58442;52.716;23.560;2023-04-03T06:13:18;0;0;0
70520;PMS5003;58442;52.716;23.560;2023-04-03T06:15:21;0;0;0
70520;PMS5003;58442;52.716;23.560;2023-04-03T06:17:30;0;0;0
70520;PMS5003;58442;52.716;23.560;2023-04-03T06:19:32;1;1;0
70520;PMS5003;58442;52.716;23.560;2023-04-03T06:21:33;0;0;0
70520;PMS5003;58442;52.716;23.560;2023-04-03T06:23:36;3;2;1
70520;PMS5003;58442;52.716;23.560;2023-04-03T06:25:45;2;2;2
70520;PMS5003;58442;52.716;23.560;2023-04-03T06:27:48;1;1;0
70520;PMS5003;58442;52.716;23.560;2023-04-03T06:29:49;2;2;2
70520;PMS5003;58442;52.716;23.560;2023-04-03T06:31:51;1;1;1
70520;PMS5003;58442;52.716;23.560;2023-04-03T06:34:00;0;0;0
70520;PMS5003;58442;52.716;23.560;2023-04-03T06:36:03;1;1;1
70520;PMS5003;58442;52.716;23.560;2023-04-03T06:38:06;0;0;0
70520;PMS5003;58442;52.716;23.560;2023-04-03T06:40:18;2;2;2
70520;PMS5003;58442;52.716;23.560;2023-04-03T06:42:21;0;0;0
70520;PMS5003;58442;52.716;23.560;2023-04-03T06:44:24;2;2;2
70520;PMS5003;58442;52.716;23.560;2023-04-03T06:46:26;1;1;1
70520;PMS5003;58442;52.716;23.560;2023-04-03T06:48:27;0;0;0
70520;PMS5003;58442;52.716;23.560;2023-04-03T06:50:30;1;1;1
70520;PMS5003;58442;52.716;23.560;2023-04-03T06:52:32;3;2;2
70520;PMS5003;58442;52.716;23.560;2023-04-03T06:54:33;0;0;0
70520;PMS5003;58442;52.716;23.560;2023-04-03T06:56:35;2;2;1
70520;PMS5003;58442;52.716;23.560;2023-04-03T06:58:46;1;1;1
70520;PMS5003;58442;52.716;23.560;2023-04-03T07:00:47;1;1;1
70520;PMS5003;58442;52.716;23.560;2023-04-03T07:02:48;2;2;1
70520;PMS5003;58442;52.716;23.560;2023-04-03T07:04:50;0;0;0
70520;PMS5003;58442;52.716;23.560;2023-04-03T07:07:01;1;1;1
70520;PMS5003;58442;52.716;23.560;2023-04-03T07:09:02;1;1;1
70520;PMS5003;58442;52.716;23.560;2023-04-03T07:11:03;0;0;0
70520;PMS5003;58442;52.716;23.560;2023-04-03T07:13:05;0;0;0
70520;PMS5003;58442;52.716;23.560;2023-04-03T07:15:16;1;1;1
70520;PMS5003;58442;52.716;23.560;2023-04-03T07:17:17;1;1;1
70520;PMS5003;58442;52.716;23.560;2023-04-03T07:19:19;0;0;0
70520;PMS5003;58442;52.716;23.560;2023-04-03T07:21:21;0;0;0
70520;PMS5003;58442;52.716;23.560;2023-04-03T07:23:31;0;0;0
70520;PMS5003;58442;52.716;23.560;2023-04-03T07:25:32;0;0;0
70520;PMS5003;58442;52.716;23.560;2023-04-03T07:27:34;0;0;0
70520;PMS5003;58442;52.716;23.560;2023-04-03T07:29:36;1;1;0
70520;PMS5003;58442;52.716;23.560;2023-04-03T07:31:46;0;0;0
70520;PMS5003;58442;52.716;23.560;2023-04-03T07:33:48;0;0;0
70520;PMS5003;58442;52.716;23.560;2023-04-03T07:35:49;1;1;1
70520;PMS5003;58442;52.716;23.560;2023-04-03T07:37:50;0;0;0
70520;PMS5003;58442;52.716;23.560;2023-04-03T07:40:01;0;0;0
70520;PMS5003;58442;52.716;23.560;2023-04-03T07:42:04;0;0;0
70520;PMS5003;58442;52.716;23.560;2023-04-03T07:44:06;0;0;0
70520;PMS5003;58442;52.716;23.560;2023-04-03T07:46:11;1;1;0
70520;PMS5003;58442;52.716;23.560;2023-04-03T07:48:17;2;2;1
70520;PMS5003;58442;52.716;23.560;2023-04-03T07:50:23;0;0;0
70520;PMS5003;58442;52.716;23.560;2023-04-03T07:52:27;0;0;0
70520;PMS5003;58442;52.716;23.560;2023-04-03T07:54:28;0;0;0
70520;PMS5003;58442;52.716;23.560;2023-04-03T07:56:31;0;0;0
70520;PMS5003;58442;52.716;23.560;2023-04-03T07:58:34;0;0;0
70520;PMS5003;58442;52.716;23.560;2023-04-03T08:00:35;1;1;0
70520;PMS5003;58442;52.716;23.560;2023-04-03T08:02:37;1;1;1
70520;PMS5003;58442;52.716;23.560;2023-04-03T08:04:46;0;0;0
70520;PMS5003;58442;52.716;23.560;2023-04-03T08:06:48;0;0;0
70520;PMS5003;58442;52.716;23.560;2023-04-03T08:08:49;0;0;0
70520;PMS5003;58442;52.716;23.560;2023-04-03T08:10:52;0;0;0
70520;PMS5003;58442;52.716;23.560;2023-04-03T08:13:02;0;0;0
70520;PMS5003;58442;52.716;23.560;2023-04-03T08:15:03;0;0;0
70520;PMS5003;58442;52.716;23.560;2023-04-03T08:17:06;0;0;0
70520;PMS5003;58442;52.716;23.560;2023-04-03T08:19:12;0;0;0
70520;PMS5003;58442;52.716;23.560;2023-04-03T08:21:16;0;0;0
70520;PMS5003;58442;52.716;23.560;2023-04-03T08:23:18;1;1;1
70520;PMS5003;58442;52.716;23.560;2023-04-03T08:25:20;1;1;1
70520;PMS5003;58442;52.716;23.560;2023-04-03T08:27:22;0;0;0
70520;PMS5003;58442;52.716;23.560;2023-04-03T08:29:31;0;0;0
70520;PMS5003;58442;52.716;23.560;2023-04-03T08:31:33;0;0;0
70520;PMS5003;58442;52.716;23.560;2023-04-03T08:33:34;1;1;1
70520;PMS5003;58442;52.716;23.560;2023-04-03T08:35:38;1;1;0
70520;PMS5003;58442;52.716;23.560;2023-04-03T08:37:46;1;1;1
70520;PMS5003;58442;52.716;23.560;2023-04-03T08:39:47;0;0;0
70520;PMS5003;58442;52.716;23.560;2023-04-03T08:41:49;0;0;0
70520;PMS5003;58442;52.716;23.560;2023-04-03T08:43:56;1;1;0
70520;PMS5003;58442;52.716;23.560;2023-04-03T08:46:03;0;0;0
70520;PMS5003;58442;52.716;23.560;2023-04-03T08:48:08;0;0;0
70520;PMS5003;58442;52.716;23.560;2023-04-03T08:50:16;0;0;0
70520;PMS5003;58442;52.716;23.560;2023-04-03T08:56:50;0;0;0
70520;PMS5003;58442;52.716;23.560;2023-04-03T08:59:06;0;0;0
70520;PMS5003;58442;52.716;23.560;2023-04-03T09:03:45;0;0;0
70520;PMS5003;58442;52.716;23.560;2023-04-03T09:08:00;0;0;0
70520;PMS5003;58442;52.716;23.560;2023-04-03T09:10:10;0;0;0
70520;PMS5003;58442;52.716;23.560;2023-04-03T09:12:18;0;0;0
70520;PMS5003;58442;52.716;23.560;2023-04-03T09:16:47;1;1;1
70520;PMS5003;58442;52.716;23.560;2023-04-03T09:23:49;0;0;0
70520;PMS5003;58442;52.716;23.560;2023-04-03T09:25:53;0;0;0
70520;PMS5003;58442;52.716;23.560;2023-04-03T09:28:02;1;1;0
70520;PMS5003;58442;52.716;23.560;2023-04-03T09:30:14;0;0;0
70520;PMS5003;58442;52.716;23.560;2023-04-03T09:34:32;0;0;0
70520;PMS5003;58442;52.716;23.560;2023-04-03T09:36:47;0;0;0
70520;PMS5003;58442;52.716;23.560;2023-04-03T09:39:01;0;0;0
70520;PMS5003;58442;52.716;23.560;2023-04-03T09:41:04;0;0;0
70520;PMS5003;58442;52.716;23.560;2023-04-03T09:45:28;0;0;0
70520;PMS5003;58442;52.716;23.560;2023-04-03T09:47:35;0;0;0
70520;PMS5003;58442;52.716;23.560;2023-04-03T09:49:39;1;1;0
70520;PMS5003;58442;52.716;23.560;2023-04-03T09:51:40;0;0;0
70520;PMS5003;58442;52.716;23.560;2023-04-03T09:53:43;0;0;0
70520;PMS5003;58442;52.716;23.560;2023-04-03T09:55:50;0;0;0
70520;PMS5003;58442;52.716;23.560;2023-04-03T09:57:51;0;0;0
70520;PMS5003;58442;52.716;23.560;2023-04-03T09:59:59;1;1;0
70520;PMS5003;58442;52.716;23.560;2023-04-03T10:04:20;0;0;0
70520;PMS5003;58442;52.716;23.560;2023-04-03T10:06:26;0;0;0
70520;PMS5003;58442;52.716;23.560;2023-04-03T10:08:33;0;0;0
70520;PMS5003;58442;52.716;23.560;2023-04-03T10:10:35;0;0;0
70520;PMS5003;58442;52.716;23.560;2023-04-03T10:12:38;0;0;0
70520;PMS5003;58442;52.716;23.560;2023-04-03T10:17:09;0;0;0
70520;PMS5003;58442;52.716;23.560;2023-04-03T10:21:54;1;1;1
70520;PMS5003;58442;52.716;23.560;2023-04-03T10:26:35;0;0;0
70520;PMS5003;58442;52.716;23.560;2023-04-03T10:29:36;0;0;0
70520;PMS5003;58442;52.716;23.560;2023-04-03T10:31:16;0;0;0
70520;PMS5003;58442;52.716;23.560;2023-04-03T10:33:37;0;0;0
70520;PMS5003;58442;52.716;23.560;2023-04-03T10:40:44;0;0;0
70520;PMS5003;58442;52.716;23.560;2023-04-03T10:52:30;0;0;0
70520;PMS5003;58442;52.716;23.560;2023-04-03T10:55:10;0;0;0
70520;PMS5003;58442;52.716;23.560;2023-04-03T10:57:08;1;1;0
70520;PMS5003;58442;52.716;23.560;2023-04-03T10:59:14;0;0;0
70520;PMS5003;58442;52.716;23.560;2023-04-03T11:01:32;0;0;0
70520;PMS5003;58442;52.716;23.560;2023-04-03T11:03:35;0;0;0
70520;PMS5003;58442;52.716;23.560;2023-04-03T11:05:47;0;0;0
70520;PMS5003;58442;52.716;23.560;2023-04-03T11:07:54;0;0;0
70520;PMS5003;58442;52.716;23.560;2023-04-03T11:10:15;0;0;0
70520;PMS5003;58442;52.716;23.560;2023-04-03T11:14:53;1;1;0
70520;PMS5003;58442;52.716;23.560;2023-04-03T11:17:03;2;2;1
70520;PMS5003;58442;52.716;23.560;2023-04-03T11:19:18;2;2;2
70520;PMS5003;58442;52.716;23.560;2023-04-03T11:21:28;1;1;1
70520;PMS5003;58442;52.716;23.560;2023-04-03T11:23:36;0;0;0
70520;PMS5003;58442;52.716;23.560;2023-04-03T11:25:41;4;4;3
70520;PMS5003;58442;52.716;23.560;2023-04-03T11:27:44;2;2;2
70520;PMS5003;58442;52.716;23.560;2023-04-03T11:29:52;1;1;1
70520;PMS5003;58442;52.716;23.560;2023-04-03T11:34:14;2;2;2
70520;PMS5003;58442;52.716;23.560;2023-04-03T11:36:23;2;2;2
70520;PMS5003;58442;52.716;23.560;2023-04-03T11:38:42;1;1;1
70520;PMS5003;58442;52.716;23.560;2023-04-03T11:40:46;1;1;1
70520;PMS5003;58442;52.716;23.560;2023-04-03T11:42:49;2;2;2
70520;PMS5003;58442;52.716;23.560;2023-04-03T11:47:09;2;2;2
70520;PMS5003;58442;52.716;23.560;2023-04-03T11:51:40;3;3;2
70520;PMS5003;58442;52.716;23.560;2023-04-03T11:53:43;2;2;2
70520;PMS5003;58442;52.716;23.560;2023-04-03T11:55:52;2;2;1
70520;PMS5003;58442;52.716;23.560;2023-04-03T11:58:03;1;1;1
70520;PMS5003;58442;52.716;23.560;2023-04-03T12:04:37;3;2;1
70520;PMS5003;58442;52.716;23.560;2023-04-03T12:06:47;1;1;1
70520;PMS5003;58442;52.716;23.560;2023-04-03T12:08:53;1;1;1
70520;PMS5003;58442;52.716;23.560;2023-04-03T12:15:19;3;3;3
70520;PMS5003;58442;52.716;23.560;2023-04-03T12:17:26;2;2;1
70520;PMS5003;58442;52.716;23.560;2023-04-03T12:19:34;1;1;1
70520;PMS5003;58442;52.716;23.560;2023-04-03T12:24:02;1;1;1
70520;PMS5003;58442;52.716;23.560;2023-04-03T12:28:26;1;1;1
70520;PMS5003;58442;52.716;23.560;2023-04-03T12:30:38;2;2;2
70520;PMS5003;58442;52.716;23.560;2023-04-03T12:35:02;3;3;2
70520;PMS5003;58442;52.716;23.560;2023-04-03T12:48:17;1;1;1
70520;PMS5003;58442;52.716;23.560;2023-04-03T12:54:46;2;2;1
70520;PMS5003;58442;52.716;23.560;2023-04-03T12:56:49;1;1;1
70520;PMS5003;58442;52.716;23.560;2023-04-03T12:58:52;1;1;1
70520;PMS5003;58442;52.716;23.560;2023-04-03T13:05:22;3;3;2
70520;PMS5003;58442;52.716;23.560;2023-04-03T13:07:26;3;3;2
70520;PMS5003;58442;52.716;23.560;2023-04-03T13:09:33;2;2;2
70520;PMS5003;58442;52.716;23.560;2023-04-03T13:11:39;2;2;2
70520;PMS5003;58442;52.716;23.560;2023-04-03T13:15:56;2;2;1
70520;PMS5003;58442;52.716;23.560;2023-04-03T13:18:01;1;1;1
70520;PMS5003;58442;52.716;23.560;2023-04-03T13:24:30;2;2;2
70520;PMS5003;58442;52.716;23.560;2023-04-03T13:26:37;6;6;5
70520;PMS5003;58442;52.716;23.560;2023-04-03T13:28:42;2;2;2
70520;PMS5003;58442;52.716;23.560;2023-04-03T13:32:58;1;1;1
70520;PMS5003;58442;52.716;23.560;2023-04-03T13:35:02;5;5;3
70520;PMS5003;58442;52.716;23.560;2023-04-03T13:37:07;4;4;2
70520;PMS5003;58442;52.716;23.560;2023-04-03T13:39:27;2;2;2
70520;PMS5003;58442;52.716;23.560;2023-04-03T13:41:37;2;2;1
70520;PMS5003;58442;52.716;23.560;2023-04-03T13:43:41;2;2;1
70520;PMS5003;58442;52.716;23.560;2023-04-03T13:45:54;5;5;4
70520;PMS5003;58442;52.716;23.560;2023-04-03T13:50:16;3;3;2
70520;PMS5003;58442;52.716;23.560;2023-04-03T13:52:30;4;4;3
70520;PMS5003;58442;52.716;23.560;2023-04-03T13:54:37;3;3;3
70520;PMS5003;58442;52.716;23.560;2023-04-03T13:56:40;4;3;2
70520;PMS5003;58442;52.716;23.560;2023-04-03T13:58:52;4;4;4
70520;PMS5003;58442;52.716;23.560;2023-04-03T14:00:58;4;3;3
70520;PMS5003;58442;52.716;23.560;2023-04-03T14:05:27;5;5;3
70520;PMS5003;58442;52.716;23.560;2023-04-03T14:07:29;5;5;4
70520;PMS5003;58442;52.716;23.560;2023-04-03T14:09:31;4;4;3
70520;PMS5003;58442;52.716;23.560;2023-04-03T14:11:33;5;5;3
70520;PMS5003;58442;52.716;23.560;2023-04-03T14:13:42;3;3;3
70520;PMS5003;58442;52.716;23.560;2023-04-03T14:15:45;2;1;0
70520;PMS5003;58442;52.716;23.560;2023-04-03T14:17:50;1;1;1
70520;PMS5003;58442;52.716;23.560;2023-04-03T14:19:56;5;5;3
70520;PMS5003;58442;52.716;23.560;2023-04-03T14:21:59;3;3;2
70520;PMS5003;58442;52.716;23.560;2023-04-03T14:24:01;4;4;4
70520;PMS5003;58442;52.716;23.560;2023-04-03T14:26:04;4;4;4
70520;PMS5003;58442;52.716;23.560;2023-04-03T14:28:16;5;5;4
70520;PMS5003;58442;52.716;23.560;2023-04-03T14:30:23;4;4;3
70520;PMS5003;58442;52.716;23.560;2023-04-03T14:32:33;1;1;1
70520;PMS5003;58442;52.716;23.560;2023-04-03T14:34:35;4;4;3
70520;PMS5003;58442;52.716;23.560;2023-04-03T14:36:36;5;5;3
70520;PMS5003;58442;52.716;23.560;2023-04-03T14:38:38;2;2;2
70520;PMS5003;58442;52.716;23.560;2023-04-03T14:40:48;5;5;5
70520;PMS5003;58442;52.716;23.560;2023-04-03T14:42:50;2;2;2
70520;PMS5003;58442;52.716;23.560;2023-04-03T14:44:52;5;5;3
70520;PMS5003;58442;52.716;23.560;2023-04-03T14:46:53;4;4;3
70520;PMS5003;58442;52.716;23.560;2023-04-03T14:49:03;4;4;3
70520;PMS5003;58442;52.716;23.560;2023-04-03T14:51:13;5;5;4
70520;PMS5003;58442;52.716;23.560;2023-04-03T14:53:16;4;4;2
70520;PMS5003;58442;52.716;23.560;2023-04-03T14:55:23;4;4;3
70520;PMS5003;58442;52.716;23.560;2023-04-03T14:57:26;4;4;3
70520;PMS5003;58442;52.716;23.560;2023-04-03T14:59:31;4;4;3
70520;PMS5003;58442;52.716;23.560;2023-04-03T15:01:33;4;4;2
70520;PMS5003;58442;52.716;23.560;2023-04-03T15:03:34;4;4;3
70520;PMS5003;58442;52.716;23.560;2023-04-03T15:05:37;4;4;3
70520;PMS5003;58442;52.716;23.560;2023-04-03T15:07:40;3;3;2
70520;PMS5003;58442;52.716;23.560;2023-04-03T15:09:44;4;4;3
70520;PMS5003;58442;52.716;23.560;2023-04-03T15:11:45;4;4;3
70520;PMS5003;58442;52.716;23.560;2023-04-03T15:13:52;5;4;4
70520;PMS5003;58442;52.716;23.560;2023-04-03T15:15:53;4;4;2
70520;PMS5003;58442;52.716;23.560;2023-04-03T15:17:55;5;5;4
70520;PMS5003;58442;52.716;23.560;2023-04-03T15:20:00;6;5;3
70520;PMS5003;58442;52.716;23.560;2023-04-03T15:22:09;3;3;3
70520;PMS5003;58442;52.716;23.560;2023-04-03T15:24:15;2;2;2
70520;PMS5003;58442;52.716;23.560;2023-04-03T15:26:16;3;3;2
70520;PMS5003;58442;52.716;23.560;2023-04-03T15:28:18;3;3;1
70520;PMS5003;58442;52.716;23.560;2023-04-03T15:30:28;8;8;4
70520;PMS5003;58442;52.716;23.560;2023-04-03T15:32:29;4;4;2
70520;PMS5003;58442;52.716;23.560;2023-04-03T15:34:31;3;3;3
70520;PMS5003;58442;52.716;23.560;2023-04-03T15:36:32;4;4;3